DK-0029 weather

Sulkendrup Flyveplads
Denmark

Public forecast

Using degrees Celsius for public forecast. Weather courtesy of forecast.io.

METAR (pilot weather report)

Report is more than 6 hours old.

Closest report is Odense Airport, 17.5 nm (32.4 km) NW. Retrieved 2019/07/19 14:50 UTC (14 hours ago):

EKOD 191450Z 28008KT 230V310 9999 SCT026 BKN042 21/15 Q1013

TAF (pilot weather forecast)

Forecast is more than 12 hours old.

Closest forecast is S√łnderborg Airport, 37.0 nm (68.6 km) WSW. Retrieved 2016/01/27 09:03 UTC (3 years ago):

TAF TAF EKSB 270856Z 2709/2721 23022KT 5000 -RA BR BKN008 TEMPO 2709/2721 24025G40KT 2000 RADZ BKN004